<?xml version="1.0" encoding="utf-8"?>
<gpx xmlns:xsi="http://www.w3.org/2001/XMLSchema-instance" xmlns:xsd="http://www.w3.org/2001/XMLSchema" version="1.1" creator="Shapelink.com" xmlns="http://www.topografix.com/GPX/1/1" xmlns:gpxtpx="http://www.garmin.com/xmlschemas/TrackPointExtension/v1">
  <metadata>
    <name>Löpning 7.60 km, 2019-09-12</name>
    <desc></desc>
    <author><name>Bengt Norberg</name></author> 
    <time>2019-09-12T16:58:51Z</time>
  </metadata>
  <trk>
    <name>Löpning 7.60 km, 2019-09-12</name>
    <trkseg>
      <trkpt lat="59.820094375105" lon="16.985101857465">
        <ele>40</ele>
        <time>2019-09-12T16:58:51Z</time>
      </trkpt>
      <trkpt lat="59.819958839782" lon="16.985087272959">
        <ele>42.2</ele>
        <time>2019-09-12T16:58:57Z</time>
      </trkpt>
      <trkpt lat="59.819760607847" lon="16.98513999511">
        <ele>45.4</ele>
        <time>2019-09-12T16:59:06Z</time>
      </trkpt>
      <trkpt lat="59.819563884654" lon="16.98519363927">
        <ele>46.6</ele>
        <time>2019-09-12T16:59:14Z</time>
      </trkpt>
      <trkpt lat="59.819539158049" lon="16.985199255143">
        <ele>47.4</ele>
        <time>2019-09-12T16:59:15Z</time>
      </trkpt>
      <trkpt lat="59.819402868355" lon="16.985229849078">
        <ele>44.2</ele>
        <time>2019-09-12T17:00:06Z</time>
      </trkpt>
      <trkpt lat="59.819438575249" lon="16.985572333512">
        <ele>44.4</ele>
        <time>2019-09-12T17:00:14Z</time>
      </trkpt>
      <trkpt lat="59.819498254377" lon="16.985928061348">
        <ele>47</ele>
        <time>2019-09-12T17:00:21Z</time>
      </trkpt>
      <trkpt lat="59.819556927677" lon="16.98628244808">
        <ele>49.2</ele>
        <time>2019-09-12T17:00:28Z</time>
      </trkpt>
      <trkpt lat="59.81961786409" lon="16.986619903374">
        <ele>50.2</ele>
        <time>2019-09-12T17:00:35Z</time>
      </trkpt>
      <trkpt lat="59.819682069444" lon="16.986971607898">
        <ele>48</ele>
        <time>2019-09-12T17:00:42Z</time>
      </trkpt>
      <trkpt lat="59.819733785767" lon="16.987322809508">
        <ele>47.2</ele>
        <time>2019-09-12T17:00:49Z</time>
      </trkpt>
      <trkpt lat="59.819801846795" lon="16.987704688872">
        <ele>47.4</ele>
        <time>2019-09-12T17:00:57Z</time>
      </trkpt>
      <trkpt lat="59.819869572547" lon="16.988076929051">
        <ele>46.8</ele>
        <time>2019-09-12T17:01:05Z</time>
      </trkpt>
      <trkpt lat="59.819927323838" lon="16.988441457882">
        <ele>45</ele>
        <time>2019-09-12T17:01:13Z</time>
      </trkpt>
      <trkpt lat="59.82000426968" lon="16.988810512939">
        <ele>44.8</ele>
        <time>2019-09-12T17:01:21Z</time>
      </trkpt>
      <trkpt lat="59.820048274655" lon="16.989159451436">
        <ele>45.8</ele>
        <time>2019-09-12T17:01:28Z</time>
      </trkpt>
      <trkpt lat="59.820080125875" lon="16.989542839542">
        <ele>44</ele>
        <time>2019-09-12T17:01:36Z</time>
      </trkpt>
      <trkpt lat="59.820176266268" lon="16.989853472756">
        <ele>42.6</ele>
        <time>2019-09-12T17:01:44Z</time>
      </trkpt>
      <trkpt lat="59.820288248452" lon="16.990153963871">
        <ele>41.4</ele>
        <time>2019-09-12T17:01:52Z</time>
      </trkpt>
      <trkpt lat="59.82039486622" lon="16.99049016188">
        <ele>41</ele>
        <time>2019-09-12T17:02:00Z</time>
      </trkpt>
      <trkpt lat="59.820495365201" lon="16.990819654369">
        <ele>39.4</ele>
        <time>2019-09-12T17:02:08Z</time>
      </trkpt>
      <trkpt lat="59.820614304362" lon="16.991138250388">
        <ele>39.4</ele>
        <time>2019-09-12T17:02:16Z</time>
      </trkpt>
      <trkpt lat="59.820719497207" lon="16.991479309899">
        <ele>40.2</ele>
        <time>2019-09-12T17:02:24Z</time>
      </trkpt>
      <trkpt lat="59.820827204622" lon="16.991794636977">
        <ele>40.6</ele>
        <time>2019-09-12T17:02:32Z</time>
      </trkpt>
      <trkpt lat="59.820924350843" lon="16.99209948668">
        <ele>39.4</ele>
        <time>2019-09-12T17:02:40Z</time>
      </trkpt>
      <trkpt lat="59.821024766005" lon="16.992417495966">
        <ele>41.2</ele>
        <time>2019-09-12T17:02:48Z</time>
      </trkpt>
      <trkpt lat="59.82104446347" lon="16.992501650242">
        <ele>42</ele>
        <time>2019-09-12T17:02:50Z</time>
      </trkpt>
      <trkpt lat="59.821040859253" lon="16.992488323021">
        <ele>40.6</ele>
        <time>2019-09-12T17:03:21Z</time>
      </trkpt>
      <trkpt lat="59.821013198983" lon="16.992415568129">
        <ele>40.2</ele>
        <time>2019-09-12T17:03:24Z</time>
      </trkpt>
      <trkpt lat="59.820911610355" lon="16.992111808073">
        <ele>39.8</ele>
        <time>2019-09-12T17:03:31Z</time>
      </trkpt>
      <trkpt lat="59.820810021727" lon="16.991804695257">
        <ele>39.8</ele>
        <time>2019-09-12T17:03:38Z</time>
      </trkpt>
      <trkpt lat="59.820700135018" lon="16.991472017646">
        <ele>40.2</ele>
        <time>2019-09-12T17:03:46Z</time>
      </trkpt>
      <trkpt lat="59.820592846698" lon="16.99118166863">
        <ele>40.4</ele>
        <time>2019-09-12T17:03:53Z</time>
      </trkpt>
      <trkpt lat="59.820494107916" lon="16.990880674601">
        <ele>40.8</ele>
        <time>2019-09-12T17:04:00Z</time>
      </trkpt>
      <trkpt lat="59.820382544827" lon="16.990586889006">
        <ele>41.8</ele>
        <time>2019-09-12T17:04:07Z</time>
      </trkpt>
      <trkpt lat="59.82026913772" lon="16.990255971594">
        <ele>42.4</ele>
        <time>2019-09-12T17:04:15Z</time>
      </trkpt>
      <trkpt lat="59.820160675934" lon="16.989951960081">
        <ele>43.2</ele>
        <time>2019-09-12T17:04:22Z</time>
      </trkpt>
      <trkpt lat="59.820062188609" lon="16.989650379319">
        <ele>42.8</ele>
        <time>2019-09-12T17:04:29Z</time>
      </trkpt>
      <trkpt lat="59.819966634949" lon="16.98930412303">
        <ele>43.8</ele>
        <time>2019-09-12T17:04:37Z</time>
      </trkpt>
      <trkpt lat="59.820058668211" lon="16.989191637932">
        <ele>42.6</ele>
        <time>2019-09-12T17:04:41Z</time>
      </trkpt>
      <trkpt lat="59.820262935114" lon="16.989110082045">
        <ele>41.4</ele>
        <time>2019-09-12T17:04:48Z</time>
      </trkpt>
      <trkpt lat="59.820458820117" lon="16.989019808982">
        <ele>41.6</ele>
        <time>2019-09-12T17:04:55Z</time>
      </trkpt>
      <trkpt lat="59.820645233573" lon="16.988923668589">
        <ele>41.6</ele>
        <time>2019-09-12T17:05:02Z</time>
      </trkpt>
      <trkpt lat="59.820825444423" lon="16.988839681951">
        <ele>41.6</ele>
        <time>2019-09-12T17:05:09Z</time>
      </trkpt>
      <trkpt lat="59.821014204811" lon="16.988740775531">
        <ele>43</ele>
        <time>2019-09-12T17:05:16Z</time>
      </trkpt>
      <trkpt lat="59.821199277163" lon="16.988637091428">
        <ele>44.8</ele>
        <time>2019-09-12T17:05:23Z</time>
      </trkpt>
      <trkpt lat="59.821376889624" lon="16.988550422582">
        <ele>45.2</ele>
        <time>2019-09-12T17:05:30Z</time>
      </trkpt>
      <trkpt lat="59.82157419955" lon="16.988435422914">
        <ele>45.6</ele>
        <time>2019-09-12T17:05:38Z</time>
      </trkpt>
      <trkpt lat="59.821763127576" lon="16.988322434902">
        <ele>44.6</ele>
        <time>2019-09-12T17:05:46Z</time>
      </trkpt>
      <trkpt lat="59.821952726154" lon="16.988204920664">
        <ele>43.8</ele>
        <time>2019-09-12T17:05:54Z</time>
      </trkpt>
      <trkpt lat="59.821997988414" lon="16.988193018366">
        <ele>43</ele>
        <time>2019-09-12T17:05:57Z</time>
      </trkpt>
      <trkpt lat="59.821995473844" lon="16.98820777051">
        <ele>43</ele>
        <time>2019-09-12T17:05:58Z</time>
      </trkpt>
      <trkpt lat="59.821728510329" lon="16.988473979654">
        <ele>42.2</ele>
        <time>2019-09-12T17:06:20Z</time>
      </trkpt>
      <trkpt lat="59.821750973821" lon="16.988440284416">
        <ele>41.8</ele>
        <time>2019-09-12T17:06:22Z</time>
      </trkpt>
      <trkpt lat="59.821928083368" lon="16.988293768804">
        <ele>42.2</ele>
        <time>2019-09-12T17:06:30Z</time>
      </trkpt>
      <trkpt lat="59.822182809309" lon="16.988104924597">
        <ele>40.8</ele>
        <time>2019-09-12T17:06:41Z</time>
      </trkpt>
      <trkpt lat="59.822374587181" lon="16.987985482522">
        <ele>39.8</ele>
        <time>2019-09-12T17:06:49Z</time>
      </trkpt>
      <trkpt lat="59.822564185759" lon="16.987858496737">
        <ele>39.6</ele>
        <time>2019-09-12T17:06:57Z</time>
      </trkpt>
      <trkpt lat="59.822635431909" lon="16.987817509246">
        <ele>39.2</ele>
        <time>2019-09-12T17:07:00Z</time>
      </trkpt>
      <trkpt lat="59.822679604522" lon="16.987822622205">
        <ele>38.8</ele>
        <time>2019-09-12T17:07:10Z</time>
      </trkpt>
      <trkpt lat="59.822853109852" lon="16.987707706356">
        <ele>39</ele>
        <time>2019-09-12T17:07:18Z</time>
      </trkpt>
      <trkpt lat="59.823026531363" lon="16.987612236515">
        <ele>39</ele>
        <time>2019-09-12T17:07:25Z</time>
      </trkpt>
      <trkpt lat="59.82319861177" lon="16.987504361462">
        <ele>38.8</ele>
        <time>2019-09-12T17:07:32Z</time>
      </trkpt>
      <trkpt lat="59.823374128756" lon="16.987398162789">
        <ele>39.8</ele>
        <time>2019-09-12T17:07:39Z</time>
      </trkpt>
      <trkpt lat="59.823571354863" lon="16.987301100387">
        <ele>39.2</ele>
        <time>2019-09-12T17:07:47Z</time>
      </trkpt>
      <trkpt lat="59.823765982581" lon="16.987167157625">
        <ele>40.8</ele>
        <time>2019-09-12T17:07:55Z</time>
      </trkpt>
      <trkpt lat="59.823957089901" lon="16.987038327822">
        <ele>41</ele>
        <time>2019-09-12T17:08:03Z</time>
      </trkpt>
      <trkpt lat="59.824134618543" lon="16.986925758905">
        <ele>41.8</ele>
        <time>2019-09-12T17:08:10Z</time>
      </trkpt>
      <trkpt lat="59.824334778315" lon="16.986851327633">
        <ele>41</ele>
        <time>2019-09-12T17:08:18Z</time>
      </trkpt>
      <trkpt lat="59.824510630577" lon="16.98676608371">
        <ele>40.8</ele>
        <time>2019-09-12T17:08:25Z</time>
      </trkpt>
      <trkpt lat="59.824688997409" lon="16.986685533651">
        <ele>40.8</ele>
        <time>2019-09-12T17:08:32Z</time>
      </trkpt>
      <trkpt lat="59.824888235172" lon="16.986585369946">
        <ele>40.4</ele>
        <time>2019-09-12T17:08:40Z</time>
      </trkpt>
      <trkpt lat="59.825080096863" lon="16.986487553173">
        <ele>39.8</ele>
        <time>2019-09-12T17:08:48Z</time>
      </trkpt>
      <trkpt lat="59.825254775659" lon="16.986403734173">
        <ele>38.8</ele>
        <time>2019-09-12T17:08:55Z</time>
      </trkpt>
      <trkpt lat="59.825426688428" lon="16.986299128061">
        <ele>38.6</ele>
        <time>2019-09-12T17:09:02Z</time>
      </trkpt>
      <trkpt lat="59.825601367224" lon="16.986198545261">
        <ele>38.4</ele>
        <time>2019-09-12T17:09:09Z</time>
      </trkpt>
      <trkpt lat="59.825779482599" lon="16.986105673809">
        <ele>37.8</ele>
        <time>2019-09-12T17:09:16Z</time>
      </trkpt>
      <trkpt lat="59.82597469705" lon="16.985984555354">
        <ele>36.8</ele>
        <time>2019-09-12T17:09:24Z</time>
      </trkpt>
      <trkpt lat="59.826170582053" lon="16.985866286745">
        <ele>36.6</ele>
        <time>2019-09-12T17:09:32Z</time>
      </trkpt>
      <trkpt lat="59.826340566985" lon="16.985746341756">
        <ele>36.4</ele>
        <time>2019-09-12T17:09:39Z</time>
      </trkpt>
      <trkpt lat="59.82645330354" lon="16.985524137587">
        <ele>38</ele>
        <time>2019-09-12T17:09:47Z</time>
      </trkpt>
      <trkpt lat="59.826417596646" lon="16.985171762511">
        <ele>39.4</ele>
        <time>2019-09-12T17:09:54Z</time>
      </trkpt>
      <trkpt lat="59.826386080702" lon="16.984781836523">
        <ele>39.8</ele>
        <time>2019-09-12T17:10:02Z</time>
      </trkpt>
      <trkpt lat="59.826351379636" lon="16.98442669542">
        <ele>40</ele>
        <time>2019-09-12T17:10:09Z</time>
      </trkpt>
      <trkpt lat="59.826321456253" lon="16.984073901249">
        <ele>40</ele>
        <time>2019-09-12T17:10:16Z</time>
      </trkpt>
      <trkpt lat="59.826298406028" lon="16.983703085993">
        <ele>38.8</ele>
        <time>2019-09-12T17:10:24Z</time>
      </trkpt>
      <trkpt lat="59.826265716618" lon="16.983317602412">
        <ele>39.6</ele>
        <time>2019-09-12T17:10:32Z</time>
      </trkpt>
      <trkpt lat="59.82624207966" lon="16.982914433022">
        <ele>39.4</ele>
        <time>2019-09-12T17:10:40Z</time>
      </trkpt>
      <trkpt lat="59.826204193472" lon="16.982537331341">
        <ele>40.2</ele>
        <time>2019-09-12T17:10:48Z</time>
      </trkpt>
      <trkpt lat="59.826171504062" lon="16.982174562709">
        <ele>40.8</ele>
        <time>2019-09-12T17:10:56Z</time>
      </trkpt>
      <trkpt lat="59.826151471321" lon="16.981807686946">
        <ele>41.8</ele>
        <time>2019-09-12T17:11:04Z</time>
      </trkpt>
      <trkpt lat="59.826117608445" lon="16.981408792325">
        <ele>42</ele>
        <time>2019-09-12T17:11:12Z</time>
      </trkpt>
      <trkpt lat="59.82608282356" lon="16.981025739495">
        <ele>41.6</ele>
        <time>2019-09-12T17:11:20Z</time>
      </trkpt>
      <trkpt lat="59.826046529933" lon="16.980631538738">
        <ele>42</ele>
        <time>2019-09-12T17:11:28Z</time>
      </trkpt>
      <trkpt lat="59.826026078097" lon="16.980255694342">
        <ele>41</ele>
        <time>2019-09-12T17:11:36Z</time>
      </trkpt>
      <trkpt lat="59.826000345664" lon="16.979879766127">
        <ele>41.2</ele>
        <time>2019-09-12T17:11:44Z</time>
      </trkpt>
      <trkpt lat="59.825966566607" lon="16.979499982238">
        <ele>42</ele>
        <time>2019-09-12T17:11:52Z</time>
      </trkpt>
      <trkpt lat="59.825928931876" lon="16.979120785082">
        <ele>44</ele>
        <time>2019-09-12T17:12:00Z</time>
      </trkpt>
      <trkpt lat="59.825935972672" lon="16.978787856014">
        <ele>46.4</ele>
        <time>2019-09-12T17:12:07Z</time>
      </trkpt>
      <trkpt lat="59.825957514155" lon="16.978732786931">
        <ele>46.8</ele>
        <time>2019-09-12T17:12:09Z</time>
      </trkpt>
      <trkpt lat="59.825949635169" lon="16.978938311119">
        <ele>46.8</ele>
        <time>2019-09-12T17:12:15Z</time>
      </trkpt>
      <trkpt lat="59.82599648999" lon="16.979309294013">
        <ele>48</ele>
        <time>2019-09-12T17:12:22Z</time>
      </trkpt>
      <trkpt lat="59.826038902404" lon="16.979709697376">
        <ele>47.6</ele>
        <time>2019-09-12T17:12:30Z</time>
      </trkpt>
      <trkpt lat="59.826074693117" lon="16.980067017773">
        <ele>48.6</ele>
        <time>2019-09-12T17:12:37Z</time>
      </trkpt>
      <trkpt lat="59.82613479134" lon="16.980780401282">
        <ele>49.8</ele>
        <time>2019-09-12T17:12:51Z</time>
      </trkpt>
      <trkpt lat="59.8261716717" lon="16.98117368003">
        <ele>51.4</ele>
        <time>2019-09-12T17:12:59Z</time>
      </trkpt>
      <trkpt lat="59.826211569544" lon="16.981564611846">
        <ele>53</ele>
        <time>2019-09-12T17:13:07Z</time>
      </trkpt>
      <trkpt lat="59.826233530122" lon="16.981918914759">
        <ele>52.2</ele>
        <time>2019-09-12T17:13:14Z</time>
      </trkpt>
      <trkpt lat="59.826270829577" lon="16.982304314521">
        <ele>52.8</ele>
        <time>2019-09-12T17:13:21Z</time>
      </trkpt>
      <trkpt lat="59.826314834552" lon="16.982699688744">
        <ele>53.8</ele>
        <time>2019-09-12T17:13:28Z</time>
      </trkpt>
      <trkpt lat="59.8263476916" lon="16.983051812363">
        <ele>55.6</ele>
        <time>2019-09-12T17:13:35Z</time>
      </trkpt>
      <trkpt lat="59.826367891979" lon="16.983425393646">
        <ele>54.8</ele>
        <time>2019-09-12T17:13:43Z</time>
      </trkpt>
      <trkpt lat="59.826394797878" lon="16.983806351001">
        <ele>55</ele>
        <time>2019-09-12T17:13:50Z</time>
      </trkpt>
      <trkpt lat="59.826417848103" lon="16.984191918401">
        <ele>54.4</ele>
        <time>2019-09-12T17:13:58Z</time>
      </trkpt>
      <trkpt lat="59.826441904156" lon="16.984580503285">
        <ele>54.6</ele>
        <time>2019-09-12T17:14:06Z</time>
      </trkpt>
      <trkpt lat="59.826475767032" lon="16.984959700441">
        <ele>55.2</ele>
        <time>2019-09-12T17:14:14Z</time>
      </trkpt>
      <trkpt lat="59.826516419247" lon="16.985322133797">
        <ele>54.8</ele>
        <time>2019-09-12T17:14:21Z</time>
      </trkpt>
      <trkpt lat="59.826544750069" lon="16.985711808328">
        <ele>53</ele>
        <time>2019-09-12T17:14:28Z</time>
      </trkpt>
      <trkpt lat="59.82658741394" lon="16.985785066134">
        <ele>52.4</ele>
        <time>2019-09-12T17:14:31Z</time>
      </trkpt>
      <trkpt lat="59.826776258147" lon="16.985768134696">
        <ele>47</ele>
        <time>2019-09-12T17:14:39Z</time>
      </trkpt>
      <trkpt lat="59.826968036019" lon="16.985810882386">
        <ele>42.4</ele>
        <time>2019-09-12T17:14:47Z</time>
      </trkpt>
      <trkpt lat="59.827168447248" lon="16.985853210981">
        <ele>39.2</ele>
        <time>2019-09-12T17:14:55Z</time>
      </trkpt>
      <trkpt lat="59.827369193753" lon="16.985861760519">
        <ele>37.4</ele>
        <time>2019-09-12T17:15:03Z</time>
      </trkpt>
      <trkpt lat="59.827539094866" lon="16.985736702571">
        <ele>37.6</ele>
        <time>2019-09-12T17:15:10Z</time>
      </trkpt>
      <trkpt lat="59.827716958784" lon="16.985549702382">
        <ele>37</ele>
        <time>2019-09-12T17:15:18Z</time>
      </trkpt>
      <trkpt lat="59.827879651463" lon="16.985330348059">
        <ele>37.2</ele>
        <time>2019-09-12T17:15:26Z</time>
      </trkpt>
      <trkpt lat="59.828031280034" lon="16.985134882151">
        <ele>36.6</ele>
        <time>2019-09-12T17:15:33Z</time>
      </trkpt>
      <trkpt lat="59.828189530306" lon="16.984962550287">
        <ele>36.8</ele>
        <time>2019-09-12T17:15:40Z</time>
      </trkpt>
      <trkpt lat="59.828338309031" lon="16.984889795395">
        <ele>37.6</ele>
        <time>2019-09-12T17:15:46Z</time>
      </trkpt>
      <trkpt lat="59.828431851035" lon="16.985204116645">
        <ele>40.4</ele>
        <time>2019-09-12T17:15:53Z</time>
      </trkpt>
      <trkpt lat="59.828449201568" lon="16.985567136734">
        <ele>44.8</ele>
        <time>2019-09-12T17:16:00Z</time>
      </trkpt>
      <trkpt lat="59.828277456437" lon="16.98576360847">
        <ele>48</ele>
        <time>2019-09-12T17:16:07Z</time>
      </trkpt>
      <trkpt lat="59.828103112917" lon="16.985915153222">
        <ele>49</ele>
        <time>2019-09-12T17:16:14Z</time>
      </trkpt>
      <trkpt lat="59.82793773803" lon="16.986057058789">
        <ele>47.4</ele>
        <time>2019-09-12T17:16:20Z</time>
      </trkpt>
      <trkpt lat="59.827763813605" lon="16.986200556917">
        <ele>46.6</ele>
        <time>2019-09-12T17:16:27Z</time>
      </trkpt>
      <trkpt lat="59.827591230284" lon="16.986353945687">
        <ele>46.2</ele>
        <time>2019-09-12T17:16:34Z</time>
      </trkpt>
      <trkpt lat="59.827421329171" lon="16.986515213443">
        <ele>46.4</ele>
        <time>2019-09-12T17:16:41Z</time>
      </trkpt>
      <trkpt lat="59.82739123815" lon="16.986827606856">
        <ele>47</ele>
        <time>2019-09-12T17:16:49Z</time>
      </trkpt>
      <trkpt lat="59.827521576695" lon="16.987160703562">
        <ele>47.8</ele>
        <time>2019-09-12T17:16:57Z</time>
      </trkpt>
      <trkpt lat="59.827638168924" lon="16.987438815004">
        <ele>51.2</ele>
        <time>2019-09-12T17:17:03Z</time>
      </trkpt>
      <trkpt lat="59.827751408393" lon="16.987746179277">
        <ele>54</ele>
        <time>2019-09-12T17:17:10Z</time>
      </trkpt>
      <trkpt lat="59.827852158831" lon="16.988108193538">
        <ele>52.2</ele>
        <time>2019-09-12T17:17:18Z</time>
      </trkpt>
      <trkpt lat="59.82794695812" lon="16.988455288017">
        <ele>51.4</ele>
        <time>2019-09-12T17:17:25Z</time>
      </trkpt>
      <trkpt lat="59.828036979726" lon="16.988769106353">
        <ele>53.2</ele>
        <time>2019-09-12T17:17:32Z</time>
      </trkpt>
      <trkpt lat="59.828124570581" lon="16.989102370697">
        <ele>54.6</ele>
        <time>2019-09-12T17:17:40Z</time>
      </trkpt>
      <trkpt lat="59.82819003322" lon="16.989268164679">
        <ele>52.6</ele>
        <time>2019-09-12T17:17:45Z</time>
      </trkpt>
      <trkpt lat="59.828275947695" lon="16.989245701187">
        <ele>51.2</ele>
        <time>2019-09-12T17:17:49Z</time>
      </trkpt>
      <trkpt lat="59.828441825496" lon="16.989092396236">
        <ele>48.6</ele>
        <time>2019-09-12T17:17:58Z</time>
      </trkpt>
      <trkpt lat="59.828613738265" lon="16.988988041581">
        <ele>46.2</ele>
        <time>2019-09-12T17:18:06Z</time>
      </trkpt>
      <trkpt lat="59.828810964372" lon="16.988877400501">
        <ele>45.6</ele>
        <time>2019-09-12T17:18:14Z</time>
      </trkpt>
      <trkpt lat="59.828990672308" lon="16.988884860392">
        <ele>45.2</ele>
        <time>2019-09-12T17:18:21Z</time>
      </trkpt>
      <trkpt lat="59.829068540159" lon="16.988926350797">
        <ele>45.2</ele>
        <time>2019-09-12T17:18:24Z</time>
      </trkpt>
      <trkpt lat="59.829170883158" lon="16.989118128669">
        <ele>46.2</ele>
        <time>2019-09-12T17:18:30Z</time>
      </trkpt>
      <trkpt lat="59.829284876998" lon="16.989003464277">
        <ele>47.4</ele>
        <time>2019-09-12T17:18:35Z</time>
      </trkpt>
      <trkpt lat="59.829328043783" lon="16.98893951038">
        <ele>46.8</ele>
        <time>2019-09-12T17:18:38Z</time>
      </trkpt>
      <trkpt lat="59.829163507086" lon="16.989115278823">
        <ele>46.4</ele>
        <time>2019-09-12T17:18:46Z</time>
      </trkpt>
      <trkpt lat="59.829134924807" lon="16.989112428977">
        <ele>46.4</ele>
        <time>2019-09-12T17:18:47Z</time>
      </trkpt>
      <trkpt lat="59.828992683964" lon="16.988901372735">
        <ele>46.6</ele>
        <time>2019-09-12T17:18:54Z</time>
      </trkpt>
      <trkpt lat="59.828917749778" lon="16.98890346821">
        <ele>46.8</ele>
        <time>2019-09-12T17:18:57Z</time>
      </trkpt>
      <trkpt lat="59.828731168684" lon="16.98891436468">
        <ele>48</ele>
        <time>2019-09-12T17:19:04Z</time>
      </trkpt>
      <trkpt lat="59.828551963662" lon="16.989032800927">
        <ele>50</ele>
        <time>2019-09-12T17:19:11Z</time>
      </trkpt>
      <trkpt lat="59.828361443075" lon="16.989166240775">
        <ele>51.2</ele>
        <time>2019-09-12T17:19:19Z</time>
      </trkpt>
      <trkpt lat="59.828185590813" lon="16.989276546579">
        <ele>51.2</ele>
        <time>2019-09-12T17:19:26Z</time>
      </trkpt>
      <trkpt lat="59.828160445113" lon="16.989278809692">
        <ele>51.4</ele>
        <time>2019-09-12T17:19:27Z</time>
      </trkpt>
      <trkpt lat="59.828066986928" lon="16.989180825281">
        <ele>50</ele>
        <time>2019-09-12T17:19:31Z</time>
      </trkpt>
      <trkpt lat="59.827962799911" lon="16.988885363306">
        <ele>47</ele>
        <time>2019-09-12T17:19:37Z</time>
      </trkpt>
      <trkpt lat="59.827856936514" lon="16.988549416754">
        <ele>45.6</ele>
        <time>2019-09-12T17:19:44Z</time>
      </trkpt>
      <trkpt lat="59.827752917135" lon="16.988195449117">
        <ele>44.4</ele>
        <time>2019-09-12T17:19:52Z</time>
      </trkpt>
      <trkpt lat="59.827658872217" lon="16.987870985768">
        <ele>44</ele>
        <time>2019-09-12T17:19:59Z</time>
      </trkpt>
      <trkpt lat="59.827570694629" lon="16.987542918202">
        <ele>43.6</ele>
        <time>2019-09-12T17:20:06Z</time>
      </trkpt>
      <trkpt lat="59.827470698562" lon="16.987210911143">
        <ele>43.8</ele>
        <time>2019-09-12T17:20:13Z</time>
      </trkpt>
      <trkpt lat="59.827380760775" lon="16.986874713134">
        <ele>44.2</ele>
        <time>2019-09-12T17:20:20Z</time>
      </trkpt>
      <trkpt lat="59.827342120216" lon="16.986535749098">
        <ele>46.4</ele>
        <time>2019-09-12T17:20:27Z</time>
      </trkpt>
      <trkpt lat="59.827369864305" lon="16.986488475182">
        <ele>46</ele>
        <time>2019-09-12T17:20:28Z</time>
      </trkpt>
      <trkpt lat="59.827521492876" lon="16.98629669731">
        <ele>45.8</ele>
        <time>2019-09-12T17:20:34Z</time>
      </trkpt>
      <trkpt lat="59.827710169445" lon="16.986124449265">
        <ele>45.6</ele>
        <time>2019-09-12T17:20:41Z</time>
      </trkpt>
      <trkpt lat="59.827888620096" lon="16.985947591175">
        <ele>45</ele>
        <time>2019-09-12T17:20:48Z</time>
      </trkpt>
      <trkpt lat="59.828058772666" lon="16.985803422495">
        <ele>43.8</ele>
        <time>2019-09-12T17:20:55Z</time>
      </trkpt>
      <trkpt lat="59.828224650467" lon="16.985642992929">
        <ele>44</ele>
        <time>2019-09-12T17:21:02Z</time>
      </trkpt>
      <trkpt lat="59.828391115001" lon="16.985467308305">
        <ele>44</ele>
        <time>2019-09-12T17:21:09Z</time>
      </trkpt>
      <trkpt lat="59.828420870746" lon="16.985401761847">
        <ele>44</ele>
        <time>2019-09-12T17:21:11Z</time>
      </trkpt>
      <trkpt lat="59.828356497754" lon="16.985038909396">
        <ele>44.8</ele>
        <time>2019-09-12T17:21:19Z</time>
      </trkpt>
      <trkpt lat="59.828294304056" lon="16.984807401318">
        <ele>45.8</ele>
        <time>2019-09-12T17:21:25Z</time>
      </trkpt>
      <trkpt lat="59.828463618436" lon="16.98464211025">
        <ele>44.4</ele>
        <time>2019-09-12T17:21:31Z</time>
      </trkpt>
      <trkpt lat="59.828643745467" lon="16.984506658746">
        <ele>43.4</ele>
        <time>2019-09-12T17:21:38Z</time>
      </trkpt>
      <trkpt lat="59.828809958544" lon="16.984323849507">
        <ele>41.8</ele>
        <time>2019-09-12T17:21:45Z</time>
      </trkpt>
      <trkpt lat="59.82895027155" lon="16.984074739439">
        <ele>40.6</ele>
        <time>2019-09-12T17:21:52Z</time>
      </trkpt>
      <trkpt lat="59.829072395833" lon="16.983810961046">
        <ele>39.6</ele>
        <time>2019-09-12T17:21:59Z</time>
      </trkpt>
      <trkpt lat="59.829190496804" lon="16.983532430509">
        <ele>39.4</ele>
        <time>2019-09-12T17:22:06Z</time>
      </trkpt>
      <trkpt lat="59.829311782897" lon="16.983255324895">
        <ele>38.4</ele>
        <time>2019-09-12T17:22:13Z</time>
      </trkpt>
      <trkpt lat="59.82943893632" lon="16.982974698883">
        <ele>38.8</ele>
        <time>2019-09-12T17:22:20Z</time>
      </trkpt>
      <trkpt lat="59.829573633453" lon="16.98270589135">
        <ele>37.8</ele>
        <time>2019-09-12T17:22:27Z</time>
      </trkpt>
      <trkpt lat="59.829731045535" lon="16.982468348304">
        <ele>36</ele>
        <time>2019-09-12T17:22:34Z</time>
      </trkpt>
      <trkpt lat="59.829899354087" lon="16.982241031176">
        <ele>37.2</ele>
        <time>2019-09-12T17:22:41Z</time>
      </trkpt>
      <trkpt lat="59.830061543852" lon="16.982057299928">
        <ele>37.4</ele>
        <time>2019-09-12T17:22:48Z</time>
      </trkpt>
      <trkpt lat="59.830221219047" lon="16.981873317223">
        <ele>37.8</ele>
        <time>2019-09-12T17:22:55Z</time>
      </trkpt>
      <trkpt lat="59.830383995545" lon="16.98168329955">
        <ele>38</ele>
        <time>2019-09-12T17:23:02Z</time>
      </trkpt>
      <trkpt lat="59.830540066523" lon="16.9814947068">
        <ele>38.6</ele>
        <time>2019-09-12T17:23:09Z</time>
      </trkpt>
      <trkpt lat="59.8307146615" lon="16.981285410757">
        <ele>40</ele>
        <time>2019-09-12T17:23:17Z</time>
      </trkpt>
      <trkpt lat="59.830891938685" lon="16.981090028668">
        <ele>41</ele>
        <time>2019-09-12T17:23:25Z</time>
      </trkpt>
      <trkpt lat="59.831063767635" lon="16.980883750109">
        <ele>41.4</ele>
        <time>2019-09-12T17:23:33Z</time>
      </trkpt>
      <trkpt lat="59.831220592984" lon="16.980688954753">
        <ele>42.2</ele>
        <time>2019-09-12T17:23:40Z</time>
      </trkpt>
      <trkpt lat="59.831380519636" lon="16.980507989532">
        <ele>41.8</ele>
        <time>2019-09-12T17:23:47Z</time>
      </trkpt>
      <trkpt lat="59.831539859555" lon="16.980330628528">
        <ele>42</ele>
        <time>2019-09-12T17:23:54Z</time>
      </trkpt>
      <trkpt lat="59.831698780379" lon="16.980163409623">
        <ele>43.2</ele>
        <time>2019-09-12T17:24:01Z</time>
      </trkpt>
      <trkpt lat="59.831871112243" lon="16.980033490173">
        <ele>44.2</ele>
        <time>2019-09-12T17:24:08Z</time>
      </trkpt>
      <trkpt lat="59.832106140719" lon="16.979881777783">
        <ele>45</ele>
        <time>2019-09-12T17:24:17Z</time>
      </trkpt>
      <trkpt lat="59.83230806069" lon="16.979802065914">
        <ele>45.6</ele>
        <time>2019-09-12T17:24:25Z</time>
      </trkpt>
      <trkpt lat="59.832494557965" lon="16.979746829193">
        <ele>45.8</ele>
        <time>2019-09-12T17:24:32Z</time>
      </trkpt>
      <trkpt lat="59.832631853487" lon="16.979611210051">
        <ele>45.8</ele>
        <time>2019-09-12T17:24:39Z</time>
      </trkpt>
      <trkpt lat="59.832502017856" lon="16.979777674585">
        <ele>46.4</ele>
        <time>2019-09-12T17:24:46Z</time>
      </trkpt>
      <trkpt lat="59.832300600799" lon="16.979841963758">
        <ele>48.6</ele>
        <time>2019-09-12T17:24:53Z</time>
      </trkpt>
      <trkpt lat="59.832102536502" lon="16.979952772476">
        <ele>49.2</ele>
        <time>2019-09-12T17:25:00Z</time>
      </trkpt>
      <trkpt lat="59.83192752243" lon="16.980058300597">
        <ele>49</ele>
        <time>2019-09-12T17:25:06Z</time>
      </trkpt>
      <trkpt lat="59.831755442023" lon="16.980180676337">
        <ele>50.4</ele>
        <time>2019-09-12T17:25:12Z</time>
      </trkpt>
      <trkpt lat="59.831574560621" lon="16.980343620473">
        <ele>52.4</ele>
        <time>2019-09-12T17:25:19Z</time>
      </trkpt>
      <trkpt lat="59.83140281549" lon="16.980523579866">
        <ele>53.2</ele>
        <time>2019-09-12T17:25:26Z</time>
      </trkpt>
      <trkpt lat="59.831241128639" lon="16.980718626679">
        <ele>53.4</ele>
        <time>2019-09-12T17:25:33Z</time>
      </trkpt>
      <trkpt lat="59.831086734041" lon="16.980924067048">
        <ele>54.8</ele>
        <time>2019-09-12T17:25:40Z</time>
      </trkpt>
      <trkpt lat="59.830926807389" lon="16.981120371146">
        <ele>55.2</ele>
        <time>2019-09-12T17:25:47Z</time>
      </trkpt>
      <trkpt lat="59.830763108882" lon="16.981305527317">
        <ele>55.2</ele>
        <time>2019-09-12T17:25:54Z</time>
      </trkpt>
      <trkpt lat="59.830596728167" lon="16.981512392609">
        <ele>55.6</ele>
        <time>2019-09-12T17:26:01Z</time>
      </trkpt>
      <trkpt lat="59.830431101823" lon="16.981721688652">
        <ele>57.2</ele>
        <time>2019-09-12T17:26:08Z</time>
      </trkpt>
      <trkpt lat="59.830267319497" lon="16.981929308315">
        <ele>59</ele>
        <time>2019-09-12T17:26:15Z</time>
      </trkpt>
      <trkpt lat="59.830099178583" lon="16.98211915835">
        <ele>58.6</ele>
        <time>2019-09-12T17:26:22Z</time>
      </trkpt>
      <trkpt lat="59.82993011566" lon="16.982353600093">
        <ele>58.6</ele>
        <time>2019-09-12T17:26:30Z</time>
      </trkpt>
      <trkpt lat="59.829775804881" lon="16.982546886707">
        <ele>57.8</ele>
        <time>2019-09-12T17:26:37Z</time>
      </trkpt>
      <trkpt lat="59.82962669088" lon="16.982791135273">
        <ele>58.8</ele>
        <time>2019-09-12T17:26:45Z</time>
      </trkpt>
      <trkpt lat="59.829502722579" lon="16.983077041882">
        <ele>58.8</ele>
        <time>2019-09-12T17:26:52Z</time>
      </trkpt>
      <trkpt lat="59.82939115949" lon="16.983371330391">
        <ele>58.6</ele>
        <time>2019-09-12T17:26:59Z</time>
      </trkpt>
      <trkpt lat="59.829262413506" lon="16.983638210087">
        <ele>57.6</ele>
        <time>2019-09-12T17:27:06Z</time>
      </trkpt>
      <trkpt lat="59.829129560391" lon="16.983943395066">
        <ele>56.6</ele>
        <time>2019-09-12T17:27:14Z</time>
      </trkpt>
      <trkpt lat="59.829002742244" lon="16.984208263106">
        <ele>55</ele>
        <time>2019-09-12T17:27:21Z</time>
      </trkpt>
      <trkpt lat="59.828857483917" lon="16.984465922712">
        <ele>55.4</ele>
        <time>2019-09-12T17:27:29Z</time>
      </trkpt>
      <trkpt lat="59.828694455962" lon="16.9846882107">
        <ele>57.4</ele>
        <time>2019-09-12T17:27:37Z</time>
      </trkpt>
      <trkpt lat="59.828527572333" lon="16.984825590041">
        <ele>58.2</ele>
        <time>2019-09-12T17:27:44Z</time>
      </trkpt>
      <trkpt lat="59.828380721445" lon="16.985020469216">
        <ele>57.6</ele>
        <time>2019-09-12T17:27:51Z</time>
      </trkpt>
      <trkpt lat="59.828478873494" lon="16.985333114086">
        <ele>56.4</ele>
        <time>2019-09-12T17:27:59Z</time>
      </trkpt>
      <trkpt lat="59.828498822416" lon="16.985538302998">
        <ele>56.8</ele>
        <time>2019-09-12T17:28:03Z</time>
      </trkpt>
      <trkpt lat="59.828383487472" lon="16.985787329247">
        <ele>59.2</ele>
        <time>2019-09-12T17:28:09Z</time>
      </trkpt>
      <trkpt lat="59.828211407065" lon="16.985965360803">
        <ele>60.4</ele>
        <time>2019-09-12T17:28:16Z</time>
      </trkpt>
      <trkpt lat="59.828036895907" lon="16.986147415671">
        <ele>59.8</ele>
        <time>2019-09-12T17:28:23Z</time>
      </trkpt>
      <trkpt lat="59.827849057528" lon="16.986305749762">
        <ele>58.8</ele>
        <time>2019-09-12T17:28:30Z</time>
      </trkpt>
      <trkpt lat="59.827675300741" lon="16.986464083853">
        <ele>58.2</ele>
        <time>2019-09-12T17:28:37Z</time>
      </trkpt>
      <trkpt lat="59.827486121258" lon="16.986584615575">
        <ele>55.4</ele>
        <time>2019-09-12T17:28:44Z</time>
      </trkpt>
      <trkpt lat="59.827409426873" lon="16.986709757342">
        <ele>55.8</ele>
        <time>2019-09-12T17:28:48Z</time>
      </trkpt>
      <trkpt lat="59.827430716899" lon="16.986937828841">
        <ele>55.2</ele>
        <time>2019-09-12T17:28:54Z</time>
      </trkpt>
      <trkpt lat="59.827557870322" lon="16.987262208371">
        <ele>56</ele>
        <time>2019-09-12T17:29:02Z</time>
      </trkpt>
      <trkpt lat="59.827663733719" lon="16.987553395577">
        <ele>58.4</ele>
        <time>2019-09-12T17:29:08Z</time>
      </trkpt>
      <trkpt lat="59.827767920736" lon="16.987867549189">
        <ele>59.8</ele>
        <time>2019-09-12T17:29:15Z</time>
      </trkpt>
      <trkpt lat="59.827867916803" lon="16.988172147435">
        <ele>59</ele>
        <time>2019-09-12T17:29:22Z</time>
      </trkpt>
      <trkpt lat="59.82797545658" lon="16.988516559706">
        <ele>59.2</ele>
        <time>2019-09-12T17:29:29Z</time>
      </trkpt>
      <trkpt lat="59.828075452647" lon="16.988847728575">
        <ele>59.4</ele>
        <time>2019-09-12T17:29:36Z</time>
      </trkpt>
      <trkpt lat="59.828167485909" lon="16.989172443381">
        <ele>60.2</ele>
        <time>2019-09-12T17:29:43Z</time>
      </trkpt>
      <trkpt lat="59.828215346558" lon="16.989303201021">
        <ele>58.2</ele>
        <time>2019-09-12T17:29:47Z</time>
      </trkpt>
      <trkpt lat="59.828313750064" lon="16.989245952644">
        <ele>55.2</ele>
        <time>2019-09-12T17:29:52Z</time>
      </trkpt>
      <trkpt lat="59.828489518507" lon="16.989092563874">
        <ele>52.6</ele>
        <time>2019-09-12T17:30:00Z</time>
      </trkpt>
      <trkpt lat="59.828671405737" lon="16.988965242813">
        <ele>51.6</ele>
        <time>2019-09-12T17:30:08Z</time>
      </trkpt>
      <trkpt lat="59.828869050939" lon="16.988885111849">
        <ele>48.2</ele>
        <time>2019-09-12T17:30:16Z</time>
      </trkpt>
      <trkpt lat="59.829051524902" lon="16.988923249494">
        <ele>44.6</ele>
        <time>2019-09-12T17:30:23Z</time>
      </trkpt>
      <trkpt lat="59.829164764371" lon="16.989140005428">
        <ele>44.6</ele>
        <time>2019-09-12T17:30:29Z</time>
      </trkpt>
      <trkpt lat="59.829272052691" lon="16.989052833668">
        <ele>42.4</ele>
        <time>2019-09-12T17:30:34Z</time>
      </trkpt>
      <trkpt lat="59.829293845631" lon="16.989028693796">
        <ele>42.6</ele>
        <time>2019-09-12T17:30:35Z</time>
      </trkpt>
      <trkpt lat="59.829305412653" lon="16.988996339662">
        <ele>41.2</ele>
        <time>2019-09-12T17:30:38Z</time>
      </trkpt>
      <trkpt lat="59.829139618671" lon="16.989157188323">
        <ele>40.4</ele>
        <time>2019-09-12T17:30:45Z</time>
      </trkpt>
      <trkpt lat="59.829114053876" lon="16.989139586333">
        <ele>40.4</ele>
        <time>2019-09-12T17:30:46Z</time>
      </trkpt>
      <trkpt lat="59.829042053355" lon="16.98897471436">
        <ele>39</ele>
        <time>2019-09-12T17:30:50Z</time>
      </trkpt>
      <trkpt lat="59.828934262121" lon="16.988929955014">
        <ele>38.6</ele>
        <time>2019-09-12T17:30:54Z</time>
      </trkpt>
      <trkpt lat="59.828748351579" lon="16.988935570887">
        <ele>41.4</ele>
        <time>2019-09-12T17:31:01Z</time>
      </trkpt>
      <trkpt lat="59.828551041653" lon="16.989057108437">
        <ele>43</ele>
        <time>2019-09-12T17:31:08Z</time>
      </trkpt>
      <trkpt lat="59.828359934333" lon="16.989169593535">
        <ele>41.6</ele>
        <time>2019-09-12T17:31:15Z</time>
      </trkpt>
      <trkpt lat="59.828180142578" lon="16.989291382542">
        <ele>42.2</ele>
        <time>2019-09-12T17:31:22Z</time>
      </trkpt>
      <trkpt lat="59.828028011093" lon="16.989151823907">
        <ele>38.6</ele>
        <time>2019-09-12T17:31:28Z</time>
      </trkpt>
      <trkpt lat="59.827923740257" lon="16.988813446604">
        <ele>36.4</ele>
        <time>2019-09-12T17:31:35Z</time>
      </trkpt>
      <trkpt lat="59.827816703394" lon="16.988471465084">
        <ele>35.4</ele>
        <time>2019-09-12T17:31:42Z</time>
      </trkpt>
      <trkpt lat="59.827720814458" lon="16.988146079726">
        <ele>36.4</ele>
        <time>2019-09-12T17:31:49Z</time>
      </trkpt>
      <trkpt lat="59.827628697377" lon="16.98781382121">
        <ele>36.4</ele>
        <time>2019-09-12T17:31:56Z</time>
      </trkpt>
      <trkpt lat="59.827525767645" lon="16.987461278496">
        <ele>39.8</ele>
        <time>2019-09-12T17:32:03Z</time>
      </trkpt>
      <trkpt lat="59.827432477098" lon="16.987146873427">
        <ele>40.4</ele>
        <time>2019-09-12T17:32:09Z</time>
      </trkpt>
      <trkpt lat="59.82734346132" lon="16.986833055091">
        <ele>42.4</ele>
        <time>2019-09-12T17:32:15Z</time>
      </trkpt>
      <trkpt lat="59.827315214317" lon="16.986677487027">
        <ele>43</ele>
        <time>2019-09-12T17:32:18Z</time>
      </trkpt>
      <trkpt lat="59.827415461841" lon="16.986390071676">
        <ele>41.6</ele>
        <time>2019-09-12T17:32:24Z</time>
      </trkpt>
      <trkpt lat="59.827595505053" lon="16.986209693188">
        <ele>41</ele>
        <time>2019-09-12T17:32:30Z</time>
      </trkpt>
      <trkpt lat="59.827759790293" lon="16.986039037704">
        <ele>40.4</ele>
        <time>2019-09-12T17:32:36Z</time>
      </trkpt>
      <trkpt lat="59.827935391098" lon="16.985886654762">
        <ele>38.8</ele>
        <time>2019-09-12T17:32:43Z</time>
      </trkpt>
      <trkpt lat="59.828112584464" lon="16.98573511001">
        <ele>40</ele>
        <time>2019-09-12T17:32:51Z</time>
      </trkpt>
      <trkpt lat="59.828287514717" lon="16.985602340714">
        <ele>39.6</ele>
        <time>2019-09-12T17:32:58Z</time>
      </trkpt>
      <trkpt lat="59.828390192992" lon="16.985483066277">
        <ele>40.2</ele>
        <time>2019-09-12T17:33:03Z</time>
      </trkpt>
      <trkpt lat="59.828335962099" lon="16.985151645951">
        <ele>41.8</ele>
        <time>2019-09-12T17:33:10Z</time>
      </trkpt>
      <trkpt lat="59.828221213888" lon="16.984910163412">
        <ele>44.8</ele>
        <time>2019-09-12T17:33:16Z</time>
      </trkpt>
      <trkpt lat="59.828121888373" lon="16.984962634106">
        <ele>46</ele>
        <time>2019-09-12T17:33:20Z</time>
      </trkpt>
      <trkpt lat="59.827951232889" lon="16.985186849931">
        <ele>49.6</ele>
        <time>2019-09-12T17:33:27Z</time>
      </trkpt>
      <trkpt lat="59.827787785839" lon="16.985421878407">
        <ele>50.8</ele>
        <time>2019-09-12T17:33:34Z</time>
      </trkpt>
      <trkpt lat="59.827634648526" lon="16.985623882197">
        <ele>50</ele>
        <time>2019-09-12T17:33:40Z</time>
      </trkpt>
      <trkpt lat="59.827458963902" lon="16.985802416667">
        <ele>49.6</ele>
        <time>2019-09-12T17:33:47Z</time>
      </trkpt>
      <trkpt lat="59.827275316473" lon="16.985919260353">
        <ele>49.4</ele>
        <time>2019-09-12T17:33:54Z</time>
      </trkpt>
      <trkpt lat="59.827084125334" lon="16.985966366631">
        <ele>52</ele>
        <time>2019-09-12T17:34:01Z</time>
      </trkpt>
      <trkpt lat="59.826899891172" lon="16.985926384968">
        <ele>51.8</ele>
        <time>2019-09-12T17:34:08Z</time>
      </trkpt>
      <trkpt lat="59.826716998114" lon="16.985892438273">
        <ele>54.8</ele>
        <time>2019-09-12T17:34:15Z</time>
      </trkpt>
      <trkpt lat="59.826521029292" lon="16.985855725551">
        <ele>57.2</ele>
        <time>2019-09-12T17:34:22Z</time>
      </trkpt>
      <trkpt lat="59.826383566132" lon="16.985716921287">
        <ele>59</ele>
        <time>2019-09-12T17:34:28Z</time>
      </trkpt>
      <trkpt lat="59.82635774988" lon="16.985322049978">
        <ele>56</ele>
        <time>2019-09-12T17:34:34Z</time>
      </trkpt>
      <trkpt lat="59.826335789302" lon="16.984964478124">
        <ele>55</ele>
        <time>2019-09-12T17:34:40Z</time>
      </trkpt>
      <trkpt lat="59.826315505104" lon="16.984566337874">
        <ele>53.4</ele>
        <time>2019-09-12T17:34:47Z</time>
      </trkpt>
      <trkpt lat="59.826290610861" lon="16.984164425769">
        <ele>52</ele>
        <time>2019-09-12T17:34:54Z</time>
      </trkpt>
      <trkpt lat="59.826281726047" lon="16.983787240269">
        <ele>50.6</ele>
        <time>2019-09-12T17:35:01Z</time>
      </trkpt>
      <trkpt lat="59.826254820148" lon="16.983396811367">
        <ele>48.4</ele>
        <time>2019-09-12T17:35:08Z</time>
      </trkpt>
      <trkpt lat="59.826195476296" lon="16.982799433354">
        <ele>46</ele>
        <time>2019-09-12T17:35:19Z</time>
      </trkpt>
      <trkpt lat="59.826173096623" lon="16.982433228143">
        <ele>44.6</ele>
        <time>2019-09-12T17:35:26Z</time>
      </trkpt>
      <trkpt lat="59.826153818253" lon="16.982062412887">
        <ele>44</ele>
        <time>2019-09-12T17:35:33Z</time>
      </trkpt>
      <trkpt lat="59.826115764427" lon="16.98168832869">
        <ele>44.8</ele>
        <time>2019-09-12T17:35:40Z</time>
      </trkpt>
      <trkpt lat="59.826081063361" lon="16.98130779043">
        <ele>45.4</ele>
        <time>2019-09-12T17:35:47Z</time>
      </trkpt>
      <trkpt lat="59.826054241281" lon="16.980934879699">
        <ele>46.4</ele>
        <time>2019-09-12T17:35:54Z</time>
      </trkpt>
      <trkpt lat="59.82603169397" lon="16.980570267049">
        <ele>48</ele>
        <time>2019-09-12T17:36:01Z</time>
      </trkpt>
      <trkpt lat="59.826002524958" lon="16.98017791031">
        <ele>49.2</ele>
        <time>2019-09-12T17:36:09Z</time>
      </trkpt>
      <trkpt lat="59.825964219675" lon="16.979777004033">
        <ele>50.8</ele>
        <time>2019-09-12T17:36:17Z</time>
      </trkpt>
      <trkpt lat="59.825936559405" lon="16.979373583186">
        <ele>48.4</ele>
        <time>2019-09-12T17:36:25Z</time>
      </trkpt>
      <trkpt lat="59.825928512781" lon="16.979053562244">
        <ele>48</ele>
        <time>2019-09-12T17:36:33Z</time>
      </trkpt>
      <trkpt lat="59.825953490843" lon="16.979244837202">
        <ele>47.6</ele>
        <time>2019-09-12T17:36:37Z</time>
      </trkpt>
      <trkpt lat="59.826011325953" lon="16.97963643957">
        <ele>48</ele>
        <time>2019-09-12T17:36:44Z</time>
      </trkpt>
      <trkpt lat="59.826060946801" lon="16.980017732201">
        <ele>45.6</ele>
        <time>2019-09-12T17:36:51Z</time>
      </trkpt>
      <trkpt lat="59.826106963432" lon="16.980367592707">
        <ele>45.6</ele>
        <time>2019-09-12T17:36:57Z</time>
      </trkpt>
      <trkpt lat="59.826135042797" lon="16.980769504812">
        <ele>43.6</ele>
        <time>2019-09-12T17:37:04Z</time>
      </trkpt>
      <trkpt lat="59.826165972008" lon="16.981134033643">
        <ele>43.2</ele>
        <time>2019-09-12T17:37:10Z</time>
      </trkpt>
      <trkpt lat="59.82619095007" lon="16.981526977115">
        <ele>40</ele>
        <time>2019-09-12T17:37:17Z</time>
      </trkpt>
      <trkpt lat="59.826219197073" lon="16.98188446515">
        <ele>40.6</ele>
        <time>2019-09-12T17:37:23Z</time>
      </trkpt>
      <trkpt lat="59.826253059949" lon="16.982290232929">
        <ele>42</ele>
        <time>2019-09-12T17:37:30Z</time>
      </trkpt>
      <trkpt lat="59.826287928653" lon="16.982701616581">
        <ele>42.8</ele>
        <time>2019-09-12T17:37:37Z</time>
      </trkpt>
      <trkpt lat="59.826317181484" lon="16.98305541658">
        <ele>43</ele>
        <time>2019-09-12T17:37:43Z</time>
      </trkpt>
      <trkpt lat="59.826347104867" lon="16.983447857138">
        <ele>44.4</ele>
        <time>2019-09-12T17:37:50Z</time>
      </trkpt>
      <trkpt lat="59.826374262223" lon="16.983842141714">
        <ele>45.2</ele>
        <time>2019-09-12T17:37:57Z</time>
      </trkpt>
      <trkpt lat="59.826408208918" lon="16.984237935032">
        <ele>46</ele>
        <time>2019-09-12T17:38:04Z</time>
      </trkpt>
      <trkpt lat="59.826446346563" lon="16.984622412785">
        <ele>47.8</ele>
        <time>2019-09-12T17:38:11Z</time>
      </trkpt>
      <trkpt lat="59.826474425928" lon="16.985016613542">
        <ele>49.4</ele>
        <time>2019-09-12T17:38:18Z</time>
      </trkpt>
      <trkpt lat="59.826507869709" lon="16.985372425197">
        <ele>49.6</ele>
        <time>2019-09-12T17:38:24Z</time>
      </trkpt>
      <trkpt lat="59.826535865255" lon="16.985729745594">
        <ele>49.6</ele>
        <time>2019-09-12T17:38:30Z</time>
      </trkpt>
      <trkpt lat="59.826523795319" lon="16.985795208233">
        <ele>50</ele>
        <time>2019-09-12T17:38:31Z</time>
      </trkpt>
      <trkpt lat="59.82636696997" lon="16.98596561226">
        <ele>49.2</ele>
        <time>2019-09-12T17:38:36Z</time>
      </trkpt>
      <trkpt lat="59.826168067483" lon="16.986074241684">
        <ele>50</ele>
        <time>2019-09-12T17:38:42Z</time>
      </trkpt>
      <trkpt lat="59.825976624887" lon="16.986189995723">
        <ele>49.6</ele>
        <time>2019-09-12T17:38:48Z</time>
      </trkpt>
      <trkpt lat="59.825787529223" lon="16.986275491103">
        <ele>49.2</ele>
        <time>2019-09-12T17:38:54Z</time>
      </trkpt>
      <trkpt lat="59.825604552346" lon="16.98636542889">
        <ele>48.2</ele>
        <time>2019-09-12T17:39:00Z</time>
      </trkpt>
      <trkpt lat="59.825431214654" lon="16.986471376106">
        <ele>48.8</ele>
        <time>2019-09-12T17:39:06Z</time>
      </trkpt>
      <trkpt lat="59.825245052655" lon="16.986564750472">
        <ele>46.8</ele>
        <time>2019-09-12T17:39:12Z</time>
      </trkpt>
      <trkpt lat="59.825052855688" lon="16.986639600839">
        <ele>44.2</ele>
        <time>2019-09-12T17:39:18Z</time>
      </trkpt>
      <trkpt lat="59.824871555191" lon="16.986706236944">
        <ele>41.8</ele>
        <time>2019-09-12T17:39:24Z</time>
      </trkpt>
      <trkpt lat="59.824694529463" lon="16.98678284751">
        <ele>40.4</ele>
        <time>2019-09-12T17:39:30Z</time>
      </trkpt>
      <trkpt lat="59.82450870274" lon="16.986859793352">
        <ele>39.4</ele>
        <time>2019-09-12T17:39:36Z</time>
      </trkpt>
      <trkpt lat="59.824327234605" lon="16.986935062814">
        <ele>39.2</ele>
        <time>2019-09-12T17:39:42Z</time>
      </trkpt>
      <trkpt lat="59.824149370687" lon="16.987016199606">
        <ele>39</ele>
        <time>2019-09-12T17:39:48Z</time>
      </trkpt>
      <trkpt lat="59.823974188977" lon="16.987109657791">
        <ele>38.6</ele>
        <time>2019-09-12T17:39:54Z</time>
      </trkpt>
      <trkpt lat="59.82377025735" lon="16.987210994962">
        <ele>39</ele>
        <time>2019-09-12T17:40:01Z</time>
      </trkpt>
      <trkpt lat="59.823591806699" lon="16.987324821164">
        <ele>39</ele>
        <time>2019-09-12T17:40:07Z</time>
      </trkpt>
      <trkpt lat="59.82339810099" lon="16.987458931564">
        <ele>39.2</ele>
        <time>2019-09-12T17:40:14Z</time>
      </trkpt>
      <trkpt lat="59.823060142782" lon="16.987665545399">
        <ele>40.2</ele>
        <time>2019-09-12T17:40:26Z</time>
      </trkpt>
      <trkpt lat="59.822887308004" lon="16.987778365773">
        <ele>39.6</ele>
        <time>2019-09-12T17:40:32Z</time>
      </trkpt>
      <trkpt lat="59.822692764105" lon="16.987889761224">
        <ele>39.8</ele>
        <time>2019-09-12T17:40:39Z</time>
      </trkpt>
      <trkpt lat="59.822500567138" lon="16.988013058973">
        <ele>39.8</ele>
        <time>2019-09-12T17:40:46Z</time>
      </trkpt>
      <trkpt lat="59.822306358515" lon="16.988134680342">
        <ele>39.8</ele>
        <time>2019-09-12T17:40:53Z</time>
      </trkpt>
      <trkpt lat="59.822131428262" lon="16.988242555395">
        <ele>38.8</ele>
        <time>2019-09-12T17:40:59Z</time>
      </trkpt>
      <trkpt lat="59.821947110281" lon="16.988353112656">
        <ele>37.8</ele>
        <time>2019-09-12T17:41:05Z</time>
      </trkpt>
      <trkpt lat="59.821769162544" lon="16.988466687401">
        <ele>36.2</ele>
        <time>2019-09-12T17:41:11Z</time>
      </trkpt>
      <trkpt lat="59.821594567567" lon="16.988564671812">
        <ele>35.8</ele>
        <time>2019-09-12T17:41:17Z</time>
      </trkpt>
      <trkpt lat="59.821411003957" lon="16.988650753925">
        <ele>34.8</ele>
        <time>2019-09-12T17:41:23Z</time>
      </trkpt>
      <trkpt lat="59.821207575244" lon="16.98873415383">
        <ele>32.6</ele>
        <time>2019-09-12T17:41:30Z</time>
      </trkpt>
      <trkpt lat="59.821004984721" lon="16.988830964775">
        <ele>31.6</ele>
        <time>2019-09-12T17:41:37Z</time>
      </trkpt>
      <trkpt lat="59.8208072557" lon="16.988915035232">
        <ele>30.6</ele>
        <time>2019-09-12T17:41:44Z</time>
      </trkpt>
      <trkpt lat="59.820612376525" lon="16.989009163969">
        <ele>29.4</ele>
        <time>2019-09-12T17:41:51Z</time>
      </trkpt>
      <trkpt lat="59.820415569513" lon="16.989079069015">
        <ele>29</ele>
        <time>2019-09-12T17:41:58Z</time>
      </trkpt>
      <trkpt lat="59.820224965107" lon="16.989177304883">
        <ele>28.4</ele>
        <time>2019-09-12T17:42:05Z</time>
      </trkpt>
      <trkpt lat="59.820031846131" lon="16.989237738382">
        <ele>29.4</ele>
        <time>2019-09-12T17:42:12Z</time>
      </trkpt>
      <trkpt lat="59.819925563639" lon="16.988937414905">
        <ele>29.6</ele>
        <time>2019-09-12T17:42:18Z</time>
      </trkpt>
      <trkpt lat="59.819851886738" lon="16.988600378706">
        <ele>32</ele>
        <time>2019-09-12T17:42:24Z</time>
      </trkpt>
      <trkpt lat="59.819787010832" lon="16.988266192353">
        <ele>35.2</ele>
        <time>2019-09-12T17:42:30Z</time>
      </trkpt>
      <trkpt lat="59.819704281479" lon="16.987900406237">
        <ele>38</ele>
        <time>2019-09-12T17:42:37Z</time>
      </trkpt>
      <trkpt lat="59.819627251818" lon="16.9875548205">
        <ele>40.4</ele>
        <time>2019-09-12T17:42:44Z</time>
      </trkpt>
      <trkpt lat="59.819575451676" lon="16.987181239217">
        <ele>43.8</ele>
        <time>2019-09-12T17:42:52Z</time>
      </trkpt>
      <trkpt lat="59.819520885507" lon="16.986816542748">
        <ele>45.8</ele>
        <time>2019-09-12T17:42:59Z</time>
      </trkpt>
      <trkpt lat="59.819488112278" lon="16.986397363929">
        <ele>47.2</ele>
        <time>2019-09-12T17:43:07Z</time>
      </trkpt>
      <trkpt lat="59.819415692662" lon="16.986037193686">
        <ele>49</ele>
        <time>2019-09-12T17:43:14Z</time>
      </trkpt>
      <trkpt lat="59.819364060158" lon="16.985692446139">
        <ele>47.4</ele>
        <time>2019-09-12T17:43:20Z</time>
      </trkpt>
      <trkpt lat="59.819307817609" lon="16.985431601411">
        <ele>47.4</ele>
        <time>2019-09-12T17:43:25Z</time>
      </trkpt>
    </trkseg>
  </trk>
</gpx>